sensor_id;sensor_type;location;lat;lon;timestamp;pressure;altitude;pressure_sealevel;temperature;humidity
75497;BME280;64074;47.540;19.072;2023-03-23T00:00:43;100458.34;;;9.34;63.77
75497;BME280;64074;47.540;19.072;2023-03-23T00:03:47;100459.44;;;9.33;64.34
75497;BME280;64074;47.540;19.072;2023-03-23T00:06:49;100466.69;;;9.38;65.46
75497;BME280;64074;47.540;19.072;2023-03-23T00:09:51;100460.81;;;9.31;64.96
75497;BME280;64074;47.540;19.072;2023-03-23T00:12:55;100457.06;;;9.27;65.38
75497;BME280;64074;47.540;19.072;2023-03-23T00:15:58;100450.31;;;9.24;65.69
75497;BME280;64074;47.540;19.072;2023-03-23T00:19:05;100457.06;;;9.27;66.17
75497;BME280;64074;47.540;19.072;2023-03-23T00:22:07;100451.41;;;9.23;65.42
75497;BME280;64074;47.540;19.072;2023-03-23T00:25:10;100453.88;;;9.19;65.81
75497;BME280;64074;47.540;19.072;2023-03-23T00:28:12;100443.09;;;9.14;65.69
75497;BME280;64074;47.540;19.072;2023-03-23T00:31:14;100450.16;;;9.10;65.32
75497;BME280;64074;47.540;19.072;2023-03-23T00:34:19;100457.50;;;9.05;66.00
75497;BME280;64074;47.540;19.072;2023-03-23T00:37:21;100448.63;;;8.99;65.72
75497;BME280;64074;47.540;19.072;2023-03-23T00:40:24;100452.41;;;8.98;66.09
75497;BME280;64074;47.540;19.072;2023-03-23T00:43:29;100448.38;;;8.96;66.31
75497;BME280;64074;47.540;19.072;2023-03-23T00:46:31;100451.09;;;8.90;67.17
75497;BME280;64074;47.540;19.072;2023-03-23T00:49:33;100445.81;;;8.75;67.45
75497;BME280;64074;47.540;19.072;2023-03-23T00:52:36;100442.44;;;8.54;67.43
75497;BME280;64074;47.540;19.072;2023-03-23T00:55:41;100439.44;;;8.56;67.21
75497;BME280;64074;47.540;19.072;2023-03-23T00:58:44;100437.25;;;8.58;67.41
75497;BME280;64074;47.540;19.072;2023-03-23T01:01:47;100432.78;;;8.43;67.59
75497;BME280;64074;47.540;19.072;2023-03-23T01:04:49;100426.53;;;8.48;67.81
75497;BME280;64074;47.540;19.072;2023-03-23T01:07:54;100427.91;;;8.45;67.83
75497;BME280;64074;47.540;19.072;2023-03-23T01:11:02;100427.34;;;8.48;67.73
75497;BME280;64074;47.540;19.072;2023-03-23T01:14:05;100426.81;;;8.46;67.61
75497;BME280;64074;47.540;19.072;2023-03-23T01:17:07;100430.88;;;8.39;67.88
75497;BME280;64074;47.540;19.072;2023-03-23T01:20:14;100432.78;;;8.43;67.54
75497;BME280;64074;47.540;19.072;2023-03-23T01:23:17;100417.38;;;8.44;67.52
75497;BME280;64074;47.540;19.072;2023-03-23T01:26:21;100430.59;;;8.40;67.93
75497;BME280;64074;47.540;19.072;2023-03-23T01:29:24;100422.78;;;8.44;67.71
75497;BME280;64074;47.540;19.072;2023-03-23T01:32:26;100421.69;;;8.45;67.78
75497;BME280;64074;47.540;19.072;2023-03-23T01:35:28;100424.72;;;8.18;69.08
75497;BME280;64074;47.540;19.072;2023-03-23T01:38:32;100427.47;;;8.13;70.19
75497;BME280;64074;47.540;19.072;2023-03-23T01:41:35;100422.31;;;8.21;68.96
75497;BME280;64074;47.540;19.072;2023-03-23T01:48:27;100419.34;;;8.13;69.73
75497;BME280;64074;47.540;19.072;2023-03-23T01:51:30;100422.41;;;8.01;70.59
75497;BME280;64074;47.540;19.072;2023-03-23T01:54:33;100425.66;;;7.98;70.45
75497;BME280;64074;47.540;19.072;2023-03-23T01:57:38;100409.44;;;7.98;70.69
75497;BME280;64074;47.540;19.072;2023-03-23T02:00:43;100425.41;;;7.94;71.32
75497;BME280;64074;47.540;19.072;2023-03-23T02:03:46;100423.78;;;7.83;71.76
75497;BME280;64074;47.540;19.072;2023-03-23T02:06:50;100422.41;;;7.96;70.88
75497;BME280;64074;47.540;19.072;2023-03-23T02:09:56;100425.09;;;8.01;70.72
75497;BME280;64074;47.540;19.072;2023-03-23T02:13:02;100414.03;;;7.92;70.92
75497;BME280;64074;47.540;19.072;2023-03-23T02:23:05;100431.09;;;7.83;71.04
75497;BME280;64074;47.540;19.072;2023-03-23T02:26:22;100427.53;;;7.97;70.37
75497;BME280;64074;47.540;19.072;2023-03-23T02:36:38;100430.00;;;7.94;69.04
75497;BME280;64074;47.540;19.072;2023-03-23T02:39:45;100430.78;;;7.94;69.35
75497;BME280;64074;47.540;19.072;2023-03-23T02:42:52;100433.22;;;7.91;69.18
75497;BME280;64074;47.540;19.072;2023-03-23T02:45:56;100436.22;;;7.84;69.57
75497;BME280;64074;47.540;19.072;2023-03-23T02:49:01;100438.88;;;7.89;69.47
75497;BME280;64074;47.540;19.072;2023-03-23T02:52:10;100434.84;;;7.87;68.37
75497;BME280;64074;47.540;19.072;2023-03-23T02:55:18;100437.56;;;7.82;68.42
75497;BME280;64074;47.540;19.072;2023-03-23T02:58:21;100437.81;;;7.85;68.21
75497;BME280;64074;47.540;19.072;2023-03-23T03:04:38;100436.75;;;7.86;68.33
75497;BME280;64074;47.540;19.072;2023-03-23T03:11:05;100434.31;;;7.85;69.04
75497;BME280;64074;47.540;19.072;2023-03-23T03:14:15;100435.94;;;7.81;69.13
75497;BME280;64074;47.540;19.072;2023-03-23T03:17:26;100437.28;;;7.83;69.14
75497;BME280;64074;47.540;19.072;2023-03-23T03:20:31;100435.97;;;7.76;69.23
75497;BME280;64074;47.540;19.072;2023-03-23T03:23:35;100441.66;;;7.74;69.35
75497;BME280;64074;47.540;19.072;2023-03-23T03:26:44;100440.56;;;7.70;69.37
75497;BME280;64074;47.540;19.072;2023-03-23T03:30:06;100448.38;;;7.66;69.50
75497;BME280;64074;47.540;19.072;2023-03-23T03:33:12;100445.97;;;7.65;69.83
75497;BME280;64074;47.540;19.072;2023-03-23T03:36:18;100439.25;;;7.57;70.20
75497;BME280;64074;47.540;19.072;2023-03-23T03:39:22;100452.47;;;7.49;70.51
75497;BME280;64074;47.540;19.072;2023-03-23T03:42:23;100454.63;;;7.41;70.28
75497;BME280;64074;47.540;19.072;2023-03-23T03:45:28;100454.91;;;7.50;70.04
75497;BME280;64074;47.540;19.072;2023-03-23T03:48:30;100453.28;;;7.54;70.46
75497;BME280;64074;47.540;19.072;2023-03-23T03:51:33;100447.38;;;7.47;71.15
75497;BME280;64074;47.540;19.072;2023-03-23T03:54:36;100451.41;;;7.34;71.14
75497;BME280;64074;47.540;19.072;2023-03-23T03:57:39;100458.97;;;7.48;71.04
75497;BME280;64074;47.540;19.072;2023-03-23T04:00:57;100466.22;;;7.52;70.75
75497;BME280;64074;47.540;19.072;2023-03-23T04:04:06;100457.34;;;7.52;70.65
75497;BME280;64074;47.540;19.072;2023-03-23T04:07:10;100464.88;;;7.60;70.43
75497;BME280;64074;47.540;19.072;2023-03-23T04:10:15;100470.00;;;7.56;70.41
75497;BME280;64074;47.540;19.072;2023-03-23T04:13:20;100469.75;;;7.48;70.54
75497;BME280;64074;47.540;19.072;2023-03-23T04:16:54;100471.91;;;7.46;69.95
75497;BME280;64074;47.540;19.072;2023-03-23T04:20:00;100475.94;;;7.38;70.02
75497;BME280;64074;47.540;19.072;2023-03-23T04:23:09;100467.31;;;7.41;70.33
75497;BME280;64074;47.540;19.072;2023-03-23T04:26:11;100473.22;;;7.43;69.79
75497;BME280;64074;47.540;19.072;2023-03-23T04:29:20;100471.88;;;7.40;69.54
75497;BME280;64074;47.540;19.072;2023-03-23T04:32:51;100463.53;;;7.47;69.06
75497;BME280;64074;47.540;19.072;2023-03-23T04:36:00;100463.00;;;7.45;68.81
75497;BME280;64074;47.540;19.072;2023-03-23T04:39:12;100467.59;;;7.34;69.63
75497;BME280;64074;47.540;19.072;2023-03-23T04:42:16;100464.91;;;7.24;69.75
75497;BME280;64074;47.540;19.072;2023-03-23T04:45:56;100471.91;;;7.20;69.60
75497;BME280;64074;47.540;19.072;2023-03-23T04:49:00;100467.59;;;7.14;69.47
75497;BME280;64074;47.540;19.072;2023-03-23T04:52:08;100472.16;;;7.14;69.63
75497;BME280;64074;47.540;19.072;2023-03-23T04:55:38;100470.84;;;7.21;69.66
75497;BME280;64074;47.540;19.072;2023-03-23T04:58:46;100470.81;;;7.36;69.62
75497;BME280;64074;47.540;19.072;2023-03-23T05:02:10;100472.16;;;7.34;69.21
75497;BME280;64074;47.540;19.072;2023-03-23T05:05:14;100468.66;;;7.38;69.27
75497;BME280;64074;47.540;19.072;2023-03-23T05:08:16;100473.78;;;7.50;69.36
75497;BME280;64074;47.540;19.072;2023-03-23T05:11:21;100481.88;;;7.60;68.93
75497;BME280;64074;47.540;19.072;2023-03-23T05:14:22;100480.25;;;7.54;69.23
75497;BME280;64074;47.540;19.072;2023-03-23T05:17:36;100480.22;;;7.64;68.19
75497;BME280;64074;47.540;19.072;2023-03-23T05:20:47;100482.94;;;7.69;68.19
75497;BME280;64074;47.540;19.072;2023-03-23T05:23:54;100483.75;;;7.65;68.06
75497;BME280;64074;47.540;19.072;2023-03-23T05:26:57;100478.88;;;7.62;68.22
75497;BME280;64074;47.540;19.072;2023-03-23T05:30:07;100468.91;;;7.62;68.03
75497;BME280;64074;47.540;19.072;2023-03-23T05:33:13;100469.97;;;7.82;67.88
75497;BME280;64074;47.540;19.072;2023-03-23T05:36:24;100476.94;;;7.98;67.07
75497;BME280;64074;47.540;19.072;2023-03-23T05:39:47;100469.34;;;8.05;67.40
75497;BME280;64074;47.540;19.072;2023-03-23T05:43:24;100462.28;;;8.19;66.99
75497;BME280;64074;47.540;19.072;2023-03-23T05:46:53;100456.84;;;8.35;66.63
75497;BME280;64074;47.540;19.072;2023-03-23T05:49:54;100452.78;;;8.37;66.97
75497;BME280;64074;47.540;19.072;2023-03-23T05:52:58;100453.59;;;8.43;66.64
75497;BME280;64074;47.540;19.072;2023-03-23T05:56:01;100456.75;;;8.55;66.26
75497;BME280;64074;47.540;19.072;2023-03-23T05:59:37;100456.94;;;8.63;66.61
75497;BME280;64074;47.540;19.072;2023-03-23T06:02:40;100455.81;;;8.75;66.48
75497;BME280;64074;47.540;19.072;2023-03-23T06:05:49;100459.78;;;8.87;66.28
75497;BME280;64074;47.540;19.072;2023-03-23T06:08:55;100461.88;;;9.01;65.72
75497;BME280;64074;47.540;19.072;2023-03-23T06:12:11;100460.41;;;9.13;66.29
75497;BME280;64074;47.540;19.072;2023-03-23T06:15:29;100465.25;;;9.16;65.25
75497;BME280;64074;47.540;19.072;2023-03-23T06:18:49;100469.41;;;9.38;64.99
75497;BME280;64074;47.540;19.072;2023-03-23T06:22:11;100468.00;;;9.45;64.46
75497;BME280;64074;47.540;19.072;2023-03-23T06:25:33;100463.88;;;9.53;64.22
75497;BME280;64074;47.540;19.072;2023-03-23T06:28:36;100462.13;;;9.67;63.65
75497;BME280;64074;47.540;19.072;2023-03-23T06:31:40;100458.03;;;9.70;64.83
75497;BME280;64074;47.540;19.072;2023-03-23T06:34:43;100448.47;;;9.77;64.41
75497;BME280;64074;47.540;19.072;2023-03-23T06:38:06;100456.09;;;9.99;63.41
75497;BME280;64074;47.540;19.072;2023-03-23T06:41:19;100459.59;;;10.00;63.51
75497;BME280;64074;47.540;19.072;2023-03-23T06:44:21;100466.13;;;10.23;62.61
75497;BME280;64074;47.540;19.072;2023-03-23T06:47:24;100464.69;;;10.30;62.21
75497;BME280;64074;47.540;19.072;2023-03-23T06:50:32;100474.88;;;10.38;61.98
75497;BME280;64074;47.540;19.072;2023-03-23T06:53:54;100468.59;;;10.62;61.18
75497;BME280;64074;47.540;19.072;2023-03-23T06:57:00;100464.94;;;10.71;61.28
75497;BME280;64074;47.540;19.072;2023-03-23T07:00:18;100463.78;;;10.77;60.70
75497;BME280;64074;47.540;19.072;2023-03-23T07:03:20;100472.22;;;10.95;60.03
75497;BME280;64074;47.540;19.072;2023-03-23T07:06:23;100471.00;;;11.20;58.57
75497;BME280;64074;47.540;19.072;2023-03-23T07:09:32;100470.31;;;11.28;55.61
75497;BME280;64074;47.540;19.072;2023-03-23T07:12:35;100472.56;;;11.39;54.14
75497;BME280;64074;47.540;19.072;2023-03-23T07:15:41;100470.94;;;11.71;53.48
75497;BME280;64074;47.540;19.072;2023-03-23T07:18:43;100478.63;;;11.83;52.88
75497;BME280;64074;47.540;19.072;2023-03-23T07:21:46;100483.59;;;11.94;52.88
75497;BME280;64074;47.540;19.072;2023-03-23T07:24:49;100480.38;;;12.20;51.54
75497;BME280;64074;47.540;19.072;2023-03-23T07:27:57;100484.28;;;12.27;51.64
75497;BME280;64074;47.540;19.072;2023-03-23T07:30:59;100482.38;;;12.28;51.45
75497;BME280;64074;47.540;19.072;2023-03-23T07:34:02;100487.59;;;12.52;50.71
75497;BME280;64074;47.540;19.072;2023-03-23T07:37:16;100488.59;;;12.70;50.37
75497;BME280;64074;47.540;19.072;2023-03-23T07:40:23;100486.72;;;12.92;49.69
75497;BME280;64074;47.540;19.072;2023-03-23T07:43:28;100485.50;;;12.85;50.05
75497;BME280;64074;47.540;19.072;2023-03-23T07:46:59;100496.97;;;13.32;49.20
75497;BME280;64074;47.540;19.072;2023-03-23T07:50:44;100496.22;;;13.17;48.79
75497;BME280;64074;47.540;19.072;2023-03-23T07:54:20;100488.25;;;13.43;48.24
75497;BME280;64074;47.540;19.072;2023-03-23T07:58:06;100494.38;;;13.49;48.51
75497;BME280;64074;47.540;19.072;2023-03-23T08:01:25;100498.63;;;13.64;47.72
75497;BME280;64074;47.540;19.072;2023-03-23T08:05:08;100484.56;;;13.70;47.96
75497;BME280;64074;47.540;19.072;2023-03-23T08:08:41;100493.81;;;13.92;46.68
75497;BME280;64074;47.540;19.072;2023-03-23T08:12:04;100495.25;;;13.89;47.31
75497;BME280;64074;47.540;19.072;2023-03-23T08:15:38;100491.78;;;14.06;46.50
75497;BME280;64074;47.540;19.072;2023-03-23T08:18:40;100497.66;;;14.30;45.85
75497;BME280;64074;47.540;19.072;2023-03-23T08:22:12;100490.44;;;14.34;46.05
75497;BME280;64074;47.540;19.072;2023-03-23T08:25:45;100502.22;;;14.43;45.69
75497;BME280;64074;47.540;19.072;2023-03-23T08:29:03;100494.38;;;14.51;45.10
75497;BME280;64074;47.540;19.072;2023-03-23T08:32:35;100493.00;;;14.88;44.17
75497;BME280;64074;47.540;19.072;2023-03-23T08:35:59;100494.13;;;15.21;43.26
75497;BME280;64074;47.540;19.072;2023-03-23T08:39:30;100499.25;;;15.31;42.97
75497;BME280;64074;47.540;19.072;2023-03-23T08:42:49;100498.75;;;15.29;42.55
75497;BME280;64074;47.540;19.072;2023-03-23T08:46:20;100498.59;;;15.43;42.20
75497;BME280;64074;47.540;19.072;2023-03-23T08:50:11;100487.66;;;15.43;41.85
75497;BME280;64074;47.540;19.072;2023-03-23T08:53:44;100492.78;;;15.71;41.56
75497;BME280;64074;47.540;19.072;2023-03-23T09:02:08;100483.97;;;16.12;40.72
75497;BME280;64074;47.540;19.072;2023-03-23T09:05:41;100483.72;;;16.25;40.23
75497;BME280;64074;47.540;19.072;2023-03-23T09:08:59;100481.56;;;16.40;40.00
75497;BME280;64074;47.540;19.072;2023-03-23T09:12:02;100477.97;;;16.48;40.06
75497;BME280;64074;47.540;19.072;2023-03-23T09:15:08;100480.84;;;16.51;39.71
75497;BME280;64074;47.540;19.072;2023-03-23T09:18:11;100471.63;;;16.85;39.37
75497;BME280;64074;47.540;19.072;2023-03-23T09:21:14;100469.84;;;16.89;39.05
75497;BME280;64074;47.540;19.072;2023-03-23T09:24:16;100471.44;;;16.90;38.94
75497;BME280;64074;47.540;19.072;2023-03-23T09:27:19;100471.56;;;17.15;39.25
75497;BME280;64074;47.540;19.072;2023-03-23T09:30:25;100463.03;;;17.62;38.00
75497;BME280;64074;47.540;19.072;2023-03-23T09:33:28;100470.75;;;17.80;37.36
75497;BME280;64074;47.540;19.072;2023-03-23T09:36:44;100465.16;;;17.56;37.98
75497;BME280;64074;47.540;19.072;2023-03-23T09:39:47;100462.09;;;18.15;37.15
75497;BME280;64074;47.540;19.072;2023-03-23T09:49:40;100463.75;;;18.81;35.89
75497;BME280;64074;47.540;19.072;2023-03-23T09:52:43;100460.47;;;18.51;36.71
75497;BME280;64074;47.540;19.072;2023-03-23T09:55:52;100460.34;;;18.47;36.56
75497;BME280;64074;47.540;19.072;2023-03-23T09:58:59;100459.00;;;18.41;36.82
75497;BME280;64074;47.540;19.072;2023-03-23T10:02:34;100440.69;;;18.97;35.93
75497;BME280;64074;47.540;19.072;2023-03-23T10:05:42;100445.47;;;18.72;36.13
75497;BME280;64074;47.540;19.072;2023-03-23T10:08:54;100453.47;;;19.05;35.84
75497;BME280;64074;47.540;19.072;2023-03-23T10:12:19;100433.66;;;19.12;35.94
75497;BME280;64074;47.540;19.072;2023-03-23T10:15:31;100438.66;;;19.22;35.89
75497;BME280;64074;47.540;19.072;2023-03-23T10:21:59;100428.09;;;19.24;35.82
75497;BME280;64074;47.540;19.072;2023-03-23T10:25:15;100420.94;;;19.35;35.73
75497;BME280;64074;47.540;19.072;2023-03-23T10:28:21;100415.25;;;19.28;35.78
75497;BME280;64074;47.540;19.072;2023-03-23T10:31:57;100412.66;;;19.20;35.84
75497;BME280;64074;47.540;19.072;2023-03-23T10:35:03;100414.31;;;19.36;35.63
75497;BME280;64074;47.540;19.072;2023-03-23T10:38:36;100403.88;;;19.74;35.26
75497;BME280;64074;47.540;19.072;2023-03-23T10:41:40;100413.94;;;19.38;35.54
75497;BME280;64074;47.540;19.072;2023-03-23T10:44:49;100400.78;;;19.59;35.30
75497;BME280;64074;47.540;19.072;2023-03-23T10:48:25;100398.97;;;19.35;35.40
75497;BME280;64074;47.540;19.072;2023-03-23T10:51:37;100398.59;;;19.37;35.50
75497;BME280;64074;47.540;19.072;2023-03-23T10:54:48;100392.13;;;19.45;35.15
75497;BME280;64074;47.540;19.072;2023-03-23T10:58:02;100404.97;;;20.36;33.91
75497;BME280;64074;47.540;19.072;2023-03-23T11:01:05;100408.84;;;20.50;33.47
75497;BME280;64074;47.540;19.072;2023-03-23T11:04:12;100399.94;;;20.57;33.29
75497;BME280;64074;47.540;19.072;2023-03-23T11:07:21;100394.91;;;19.92;34.22
75497;BME280;64074;47.540;19.072;2023-03-23T11:10:57;100390.63;;;20.11;34.11
75497;BME280;64074;47.540;19.072;2023-03-23T11:14:15;100392.75;;;20.17;34.15
75497;BME280;64074;47.540;19.072;2023-03-23T11:17:23;100386.91;;;20.73;33.36
75497;BME280;64074;47.540;19.072;2023-03-23T11:20:27;100373.63;;;20.40;33.47
75497;BME280;64074;47.540;19.072;2023-03-23T11:23:36;100363.69;;;20.94;32.57
75497;BME280;64074;47.540;19.072;2023-03-23T11:26:59;100362.78;;;21.51;31.56
75497;BME280;64074;47.540;19.072;2023-03-23T11:30:10;100363.41;;;21.64;31.26
75497;BME280;64074;47.540;19.072;2023-03-23T11:33:14;100371.63;;;21.60;30.79
75497;BME280;64074;47.540;19.072;2023-03-23T11:36:17;100379.94;;;20.79;31.71
75497;BME280;64074;47.540;19.072;2023-03-23T11:45:40;100370.59;;;19.79;32.99
75497;BME280;64074;47.540;19.072;2023-03-23T11:48:53;100358.34;;;19.76;33.27
75497;BME280;64074;47.540;19.072;2023-03-23T11:52:05;100362.53;;;19.70;33.31
75497;BME280;64074;47.540;19.072;2023-03-23T11:58:21;100360.34;;;20.11;32.66
75497;BME280;64074;47.540;19.072;2023-03-23T12:12:04;100331.59;;;21.73;30.33
75497;BME280;64074;47.540;19.072;2023-03-23T12:19:00;100307.88;;;22.22;31.30
75497;BME280;64074;47.540;19.072;2023-03-23T12:49:46;100282.75;;;25.23;24.93
75497;BME280;64074;47.540;19.072;2023-03-23T12:53:18;100295.00;;;24.93;25.09
75497;BME280;64074;47.540;19.072;2023-03-23T12:56:39;100282.78;;;25.30;24.51
75497;BME280;64074;47.540;19.072;2023-03-23T12:59:56;100281.19;;;25.22;24.96
75497;BME280;64074;47.540;19.072;2023-03-23T13:03:19;100270.50;;;25.34;24.79
75497;BME280;64074;47.540;19.072;2023-03-23T13:06:56;100266.91;;;25.23;24.86
75497;BME280;64074;47.540;19.072;2023-03-23T13:10:25;100270.38;;;24.77;25.29
75497;BME280;64074;47.540;19.072;2023-03-23T13:13:58;100277.03;;;24.48;25.95
75497;BME280;64074;47.540;19.072;2023-03-23T13:21:25;100266.47;;;24.93;25.40
75497;BME280;64074;47.540;19.072;2023-03-23T13:24:55;100260.28;;;24.16;26.56
75497;BME280;64074;47.540;19.072;2023-03-23T13:28:00;100266.22;;;24.21;25.87
75497;BME280;64074;47.540;19.072;2023-03-23T13:34:42;100254.19;;;25.72;24.05
75497;BME280;64074;47.540;19.072;2023-03-23T13:37:46;100253.41;;;25.82;24.00
75497;BME280;64074;47.540;19.072;2023-03-23T13:40:50;100262.91;;;25.74;24.12
75497;BME280;64074;47.540;19.072;2023-03-23T13:43:53;100245.88;;;25.61;24.16
75497;BME280;64074;47.540;19.072;2023-03-23T13:54:44;100232.00;;;24.87;25.17
75497;BME280;64074;47.540;19.072;2023-03-23T14:04:16;100234.75;;;24.87;25.36
75497;BME280;64074;47.540;19.072;2023-03-23T14:07:26;100225.94;;;24.42;25.97
75497;BME280;64074;47.540;19.072;2023-03-23T14:10:53;100224.81;;;24.78;25.45
75497;BME280;64074;47.540;19.072;2023-03-23T14:14:04;100234.03;;;23.92;26.59
75497;BME280;64074;47.540;19.072;2023-03-23T14:17:17;100230.44;;;25.35;25.25
75497;BME280;64074;47.540;19.072;2023-03-23T14:20:34;100229.81;;;24.19;26.54
75497;BME280;64074;47.540;19.072;2023-03-23T14:23:39;100224.53;;;23.93;26.79
75497;BME280;64074;47.540;19.072;2023-03-23T14:26:41;100219.75;;;26.57;23.52
75497;BME280;64074;47.540;19.072;2023-03-23T14:30:02;100209.44;;;25.06;25.01
75497;BME280;64074;47.540;19.072;2023-03-23T14:33:21;100216.13;;;25.44;24.77
75497;BME280;64074;47.540;19.072;2023-03-23T14:36:39;100220.22;;;27.07;22.97
75497;BME280;64074;47.540;19.072;2023-03-23T14:39:45;100216.25;;;26.42;23.31
75497;BME280;64074;47.540;19.072;2023-03-23T14:42:50;100216.53;;;26.62;23.78
75497;BME280;64074;47.540;19.072;2023-03-23T14:45:54;100217.41;;;26.45;23.56
75497;BME280;64074;47.540;19.072;2023-03-23T14:49:00;100216.44;;;24.43;26.16
75497;BME280;64074;47.540;19.072;2023-03-23T14:52:14;100216.91;;;24.56;26.06
75497;BME280;64074;47.540;19.072;2023-03-23T14:55:24;100213.41;;;25.12;25.38
75497;BME280;64074;47.540;19.072;2023-03-23T14:58:30;100213.69;;;24.50;25.74
75497;BME280;64074;47.540;19.072;2023-03-23T15:01:34;100215.34;;;25.54;24.68
75497;BME280;64074;47.540;19.072;2023-03-23T15:04:48;100217.31;;;24.82;25.48
75497;BME280;64074;47.540;19.072;2023-03-23T15:08:13;100211.91;;;24.03;26.39
75497;BME280;64074;47.540;19.072;2023-03-23T15:14:21;100212.84;;;22.63;28.73
75497;BME280;64074;47.540;19.072;2023-03-23T15:17:35;100208.66;;;22.39;29.48
75497;BME280;64074;47.540;19.072;2023-03-23T15:20:49;100221.13;;;21.96;30.12
75497;BME280;64074;47.540;19.072;2023-03-23T15:23:51;100216.81;;;21.69;30.65
75497;BME280;64074;47.540;19.072;2023-03-23T15:26:54;100220.88;;;22.05;30.41
75497;BME280;64074;47.540;19.072;2023-03-23T15:30:28;100224.94;;;22.48;29.75
75497;BME280;64074;47.540;19.072;2023-03-23T15:33:34;100210.75;;;22.53;29.46
75497;BME280;64074;47.540;19.072;2023-03-23T15:36:37;100208.72;;;22.09;30.30
75497;BME280;64074;47.540;19.072;2023-03-23T15:39:40;100205.16;;;21.53;31.20
75497;BME280;64074;47.540;19.072;2023-03-23T15:42:43;100204.25;;;21.71;31.04
75497;BME280;64074;47.540;19.072;2023-03-23T15:49:13;100209.69;;;21.15;31.67
75497;BME280;64074;47.540;19.072;2023-03-23T15:52:18;100210.97;;;20.98;31.91
75497;BME280;64074;47.540;19.072;2023-03-23T15:55:35;100210.56;;;20.96;32.01
75497;BME280;64074;47.540;19.072;2023-03-23T15:58:38;100211.28;;;21.16;31.87
75497;BME280;64074;47.540;19.072;2023-03-23T16:01:42;100217.59;;;20.94;32.25
75497;BME280;64074;47.540;19.072;2023-03-23T16:04:45;100207.06;;;20.99;32.00
75497;BME280;64074;47.540;19.072;2023-03-23T16:07:50;100209.59;;;20.85;32.31
75497;BME280;64074;47.540;19.072;2023-03-23T16:10:52;100224.69;;;20.72;32.42
75497;BME280;64074;47.540;19.072;2023-03-23T16:13:56;100211.34;;;20.74;32.37
75497;BME280;64074;47.540;19.072;2023-03-23T16:17:00;100209.75;;;20.96;32.28
75497;BME280;64074;47.540;19.072;2023-03-23T16:20:18;100213.16;;;20.43;33.19
75497;BME280;64074;47.540;19.072;2023-03-23T16:23:22;100217.47;;;20.25;33.37
75497;BME280;64074;47.540;19.072;2023-03-23T16:26:26;100223.13;;;20.32;33.46
75497;BME280;64074;47.540;19.072;2023-03-23T16:29:29;100215.09;;;20.23;33.57
75497;BME280;64074;47.540;19.072;2023-03-23T16:32:53;100226.63;;;20.10;34.03
75497;BME280;64074;47.540;19.072;2023-03-23T16:35:59;100232.69;;;20.19;33.72
75497;BME280;64074;47.540;19.072;2023-03-23T16:39:02;100236.47;;;20.11;34.00
75497;BME280;64074;47.540;19.072;2023-03-23T16:42:05;100235.16;;;20.05;34.29
75497;BME280;64074;47.540;19.072;2023-03-23T16:45:10;100230.94;;;19.91;34.38
75497;BME280;64074;47.540;19.072;2023-03-23T16:48:14;100237.72;;;19.78;34.64
75497;BME280;64074;47.540;19.072;2023-03-23T16:51:18;100237.19;;;19.88;34.66
75497;BME280;64074;47.540;19.072;2023-03-23T16:54:29;100239.59;;;19.74;34.92
75497;BME280;64074;47.540;19.072;2023-03-23T16:57:33;100239.16;;;19.72;34.79
75497;BME280;64074;47.540;19.072;2023-03-23T17:00:39;100238.75;;;19.54;35.36
75497;BME280;64074;47.540;19.072;2023-03-23T17:03:43;100247.00;;;19.70;35.08
75497;BME280;64074;47.540;19.072;2023-03-23T17:06:46;100244.69;;;19.56;35.46
75497;BME280;64074;47.540;19.072;2023-03-23T17:09:50;100245.16;;;19.27;35.95
75497;BME280;64074;47.540;19.072;2023-03-23T17:12:54;100249.59;;;19.31;36.01
75497;BME280;64074;47.540;19.072;2023-03-23T17:15:57;100252.97;;;19.09;36.44
75497;BME280;64074;47.540;19.072;2023-03-23T17:19:00;100259.72;;;19.12;36.74
75497;BME280;64074;47.540;19.072;2023-03-23T17:22:03;100255.03;;;19.12;36.71
75497;BME280;64074;47.540;19.072;2023-03-23T17:25:07;100251.84;;;19.10;36.95
75497;BME280;64074;47.540;19.072;2023-03-23T17:28:11;100257.56;;;19.05;37.08
75497;BME280;64074;47.540;19.072;2023-03-23T17:31:14;100261.47;;;19.04;37.17
75497;BME280;64074;47.540;19.072;2023-03-23T17:34:17;100265.81;;;18.89;37.44
75497;BME280;64074;47.540;19.072;2023-03-23T17:37:21;100265.88;;;18.77;37.84
75497;BME280;64074;47.540;19.072;2023-03-23T17:40:25;100262.69;;;18.75;38.00
75497;BME280;64074;47.540;19.072;2023-03-23T17:43:27;100271.88;;;18.67;38.02
75497;BME280;64074;47.540;19.072;2023-03-23T17:46:30;100271.19;;;18.58;38.32
75497;BME280;64074;47.540;19.072;2023-03-23T17:49:33;100275.53;;;18.59;38.45
75497;BME280;64074;47.540;19.072;2023-03-23T17:52:36;100275.88;;;18.57;38.32
75497;BME280;64074;47.540;19.072;2023-03-23T17:55:40;100283.22;;;18.53;39.09
75497;BME280;64074;47.540;19.072;2023-03-23T17:58:45;100286.44;;;18.55;39.36
75497;BME280;64074;47.540;19.072;2023-03-23T18:01:49;100281.81;;;18.43;38.87
75497;BME280;64074;47.540;19.072;2023-03-23T18:04:56;100280.31;;;18.34;40.12
75497;BME280;64074;47.540;19.072;2023-03-23T18:07:59;100282.44;;;18.25;41.89
75497;BME280;64074;47.540;19.072;2023-03-23T18:11:02;100291.25;;;18.18;39.65
75497;BME280;64074;47.540;19.072;2023-03-23T18:14:06;100291.00;;;18.23;39.67
75497;BME280;64074;47.540;19.072;2023-03-23T18:17:09;100288.06;;;18.16;39.53
75497;BME280;64074;47.540;19.072;2023-03-23T18:20:25;100294.25;;;18.13;41.54
75497;BME280;64074;47.540;19.072;2023-03-23T18:23:30;100304.09;;;18.14;40.48